sensor_id;sensor_type;location;lat;lon;timestamp;pressure;altitude;pressure_sealevel;temperature;humidity
79150;BME280;68563;45.644;13.782;2024-01-10T00:00:36;102181.81;;;0.91;47.12
79150;BME280;68563;45.644;13.782;2024-01-10T00:03:02;102076.31;;;0.89;47.03
79150;BME280;68563;45.644;13.782;2024-01-10T00:05:28;102083.00;;;0.87;46.98
79150;BME280;68563;45.644;13.782;2024-01-10T00:07:54;102090.72;;;0.88;46.97
79150;BME280;68563;45.644;13.782;2024-01-10T00:10:19;102045.09;;;0.76;47.20
79150;BME280;68563;45.644;13.782;2024-01-10T00:12:47;102088.16;;;0.88;47.11
79150;BME280;68563;45.644;13.782;2024-01-10T00:15:12;102095.44;;;0.81;47.18
79150;BME280;68563;45.644;13.782;2024-01-10T00:17:38;102179.06;;;0.86;47.10
79150;BME280;68563;45.644;13.782;2024-01-10T00:20:06;102140.56;;;0.82;47.01
79150;BME280;68563;45.644;13.782;2024-01-10T00:22:31;102121.41;;;0.90;47.06
79150;BME280;68563;45.644;13.782;2024-01-10T00:24:57;102060.16;;;0.72;47.22
79150;BME280;68563;45.644;13.782;2024-01-10T00:27:22;102053.84;;;0.82;47.27
79150;BME280;68563;45.644;13.782;2024-01-10T00:29:47;102278.34;;;0.83;47.22
79150;BME280;68563;45.644;13.782;2024-01-10T00:32:13;102049.03;;;0.88;47.25
79150;BME280;68563;45.644;13.782;2024-01-10T00:34:38;102095.81;;;0.88;46.80
79150;BME280;68563;45.644;13.782;2024-01-10T00:37:04;102148.03;;;0.78;47.26
79150;BME280;68563;45.644;13.782;2024-01-10T00:39:29;102086.03;;;0.79;47.20
79150;BME280;68563;45.644;13.782;2024-01-10T00:41:54;102080.69;;;0.75;47.20
79150;BME280;68563;45.644;13.782;2024-01-10T00:44:20;102107.41;;;0.82;46.95
79150;BME280;68563;45.644;13.782;2024-01-10T00:46:45;102119.84;;;0.75;47.10
79150;BME280;68563;45.644;13.782;2024-01-10T00:49:10;102094.03;;;0.69;47.65
79150;BME280;68563;45.644;13.782;2024-01-10T00:51:36;102113.22;;;0.79;47.28
79150;BME280;68563;45.644;13.782;2024-01-10T00:54:01;102111.72;;;0.83;47.04
79150;BME280;68563;45.644;13.782;2024-01-10T00:56:26;102116.81;;;0.83;47.13
79150;BME280;68563;45.644;13.782;2024-01-10T00:58:52;102121.00;;;0.82;47.20
79150;BME280;68563;45.644;13.782;2024-01-10T01:01:23;102062.63;;;0.70;47.48
79150;BME280;68563;45.644;13.782;2024-01-10T01:03:48;102112.50;;;0.65;47.50
79150;BME280;68563;45.644;13.782;2024-01-10T01:06:13;102144.22;;;0.70;47.53
79150;BME280;68563;45.644;13.782;2024-01-10T01:08:39;102077.97;;;0.54;47.79
79150;BME280;68563;45.644;13.782;2024-01-10T01:11:04;102138.06;;;0.67;47.76
79150;BME280;68563;45.644;13.782;2024-01-10T01:13:29;102106.69;;;0.68;47.88
79150;BME280;68563;45.644;13.782;2024-01-10T01:15:55;102075.53;;;0.73;47.94
79150;BME280;68563;45.644;13.782;2024-01-10T01:18:20;102042.94;;;0.68;47.88
79150;BME280;68563;45.644;13.782;2024-01-10T01:20:45;102054.34;;;0.74;48.00
79150;BME280;68563;45.644;13.782;2024-01-10T01:23:13;102123.81;;;0.70;48.21
79150;BME280;68563;45.644;13.782;2024-01-10T01:25:39;102088.47;;;0.76;48.24
79150;BME280;68563;45.644;13.782;2024-01-10T01:28:04;102090.47;;;0.66;48.34
79150;BME280;68563;45.644;13.782;2024-01-10T01:30:30;102123.56;;;0.82;48.20
79150;BME280;68563;45.644;13.782;2024-01-10T01:32:55;102098.41;;;0.72;48.49
79150;BME280;68563;45.644;13.782;2024-01-10T01:35:20;102039.41;;;0.82;48.53
79150;BME280;68563;45.644;13.782;2024-01-10T01:37:47;102060.78;;;0.84;48.24
79150;BME280;68563;45.644;13.782;2024-01-10T01:40:13;102103.66;;;0.75;48.29
79150;BME280;68563;45.644;13.782;2024-01-10T01:42:38;102076.63;;;0.78;48.46
79150;BME280;68563;45.644;13.782;2024-01-10T01:45:04;102031.63;;;0.79;48.42
79150;BME280;68563;45.644;13.782;2024-01-10T01:47:30;102074.97;;;0.79;48.39
79150;BME280;68563;45.644;13.782;2024-01-10T01:49:56;102134.13;;;0.72;48.57
79150;BME280;68563;45.644;13.782;2024-01-10T01:52:21;102071.59;;;0.80;48.45
79150;BME280;68563;45.644;13.782;2024-01-10T01:54:47;102087.78;;;0.81;48.42
79150;BME280;68563;45.644;13.782;2024-01-10T01:57:13;102098.47;;;0.73;48.73
79150;BME280;68563;45.644;13.782;2024-01-10T01:59:38;102059.28;;;0.71;48.57
79150;BME280;68563;45.644;13.782;2024-01-10T02:02:05;102087.72;;;0.79;48.26
79150;BME280;68563;45.644;13.782;2024-01-10T02:04:30;102089.63;;;0.83;48.27
79150;BME280;68563;45.644;13.782;2024-01-10T02:06:56;102144.56;;;0.76;48.56
79150;BME280;68563;45.644;13.782;2024-01-10T02:09:21;102083.56;;;0.81;48.40
79150;BME280;68563;45.644;13.782;2024-01-10T02:11:47;102096.31;;;0.81;48.40
79150;BME280;68563;45.644;13.782;2024-01-10T02:14:13;102106.94;;;0.72;48.68
79150;BME280;68563;45.644;13.782;2024-01-10T02:16:40;102031.00;;;0.67;48.68
79150;BME280;68563;45.644;13.782;2024-01-10T02:19:22;102097.28;;;0.83;48.29
79150;BME280;68563;45.644;13.782;2024-01-10T02:21:48;102070.44;;;0.73;48.59
79150;BME280;68563;45.644;13.782;2024-01-10T02:24:13;102110.56;;;0.77;48.47
79150;BME280;68563;45.644;13.782;2024-01-10T02:26:39;102087.31;;;0.71;48.35
79150;BME280;68563;45.644;13.782;2024-01-10T02:29:05;102082.75;;;0.82;48.25
79150;BME280;68563;45.644;13.782;2024-01-10T02:31:30;102072.31;;;0.77;48.49
79150;BME280;68563;45.644;13.782;2024-01-10T02:33:56;102110.56;;;0.77;48.44
79150;BME280;68563;45.644;13.782;2024-01-10T02:36:21;102158.31;;;0.80;48.43
79150;BME280;68563;45.644;13.782;2024-01-10T02:38:47;102146.09;;;0.91;48.24
79150;BME280;68563;45.644;13.782;2024-01-10T02:41:13;102139.84;;;0.84;48.32
79150;BME280;68563;45.644;13.782;2024-01-10T02:43:38;102071.53;;;0.78;48.43
79150;BME280;68563;45.644;13.782;2024-01-10T02:46:04;102078.03;;;0.72;48.56
79150;BME280;68563;45.644;13.782;2024-01-10T02:48:29;102098.19;;;0.67;48.56
79150;BME280;68563;45.644;13.782;2024-01-10T02:50:54;102063.66;;;0.74;48.42
79150;BME280;68563;45.644;13.782;2024-01-10T02:53:21;102061.03;;;0.72;48.36
79150;BME280;68563;45.644;13.782;2024-01-10T02:55:46;102129.69;;;0.86;48.17
79150;BME280;68563;45.644;13.782;2024-01-10T02:58:13;102086.28;;;0.84;48.07
79150;BME280;68563;45.644;13.782;2024-01-10T03:00:38;102099.94;;;0.68;48.38
79150;BME280;68563;45.644;13.782;2024-01-10T03:03:04;102071.94;;;0.70;48.24
79150;BME280;68563;45.644;13.782;2024-01-10T03:05:29;102100.56;;;0.64;47.98
79150;BME280;68563;45.644;13.782;2024-01-10T03:07:55;102098.19;;;0.67;48.15
79150;BME280;68563;45.644;13.782;2024-01-10T03:10:20;102078.25;;;0.76;47.93
79150;BME280;68563;45.644;13.782;2024-01-10T03:12:46;102058.72;;;0.77;47.80
79150;BME280;68563;45.644;13.782;2024-01-10T03:15:11;102059.28;;;0.71;48.04
79150;BME280;68563;45.644;13.782;2024-01-10T03:17:37;102056.50;;;0.67;48.09
79150;BME280;68563;45.644;13.782;2024-01-10T03:20:03;102037.22;;;0.72;47.91
79150;BME280;68563;45.644;13.782;2024-01-10T03:22:31;102067.34;;;0.62;48.15
79150;BME280;68563;45.644;13.782;2024-01-10T03:24:57;102097.38;;;0.68;47.92
79150;BME280;68563;45.644;13.782;2024-01-10T03:27:22;102079.22;;;0.62;48.17
79150;BME280;68563;45.644;13.782;2024-01-10T03:29:48;102154.41;;;0.70;48.15
79150;BME280;68563;45.644;13.782;2024-01-10T03:32:13;102143.53;;;0.73;47.94
79150;BME280;68563;45.644;13.782;2024-01-10T03:34:39;102014.78;;;0.48;48.22
79150;BME280;68563;45.644;13.782;2024-01-10T03:37:06;102046.94;;;0.62;48.19
79150;BME280;68563;45.644;13.782;2024-01-10T03:39:31;102079.06;;;0.59;48.30
79150;BME280;68563;45.644;13.782;2024-01-10T03:41:56;102070.44;;;0.57;48.30
79150;BME280;68563;45.644;13.782;2024-01-10T03:44:22;102075.97;;;0.65;48.20
79150;BME280;68563;45.644;13.782;2024-01-10T03:46:48;102115.41;;;0.55;48.36
79150;BME280;68563;45.644;13.782;2024-01-10T03:49:13;102061.88;;;0.55;48.43
79150;BME280;68563;45.644;13.782;2024-01-10T03:51:38;102051.25;;;0.47;48.56
79150;BME280;68563;45.644;13.782;2024-01-10T03:54:05;102030.97;;;0.49;48.77
79150;BME280;68563;45.644;13.782;2024-01-10T03:56:31;102117.47;;;0.45;48.61
79150;BME280;68563;45.644;13.782;2024-01-10T03:58:56;102163.97;;;0.58;48.47
79150;BME280;68563;45.644;13.782;2024-01-10T04:01:23;102120.81;;;0.61;48.56
79150;BME280;68563;45.644;13.782;2024-01-10T04:03:49;102076.69;;;0.62;48.59
79150;BME280;68563;45.644;13.782;2024-01-10T04:06:14;102113.97;;;0.60;48.71
79150;BME280;68563;45.644;13.782;2024-01-10T04:08:40;102061.03;;;0.56;48.66
79150;BME280;68563;45.644;13.782;2024-01-10T04:11:05;102074.69;;;0.56;48.79
79150;BME280;68563;45.644;13.782;2024-01-10T04:13:36;102114.56;;;0.56;48.99
79150;BME280;68563;45.644;13.782;2024-01-10T04:16:01;102101.34;;;0.63;48.69
79150;BME280;68563;45.644;13.782;2024-01-10T04:18:26;102063.59;;;0.56;48.56
79150;BME280;68563;45.644;13.782;2024-01-10T04:20:52;102100.06;;;0.71;48.57
79150;BME280;68563;45.644;13.782;2024-01-10T04:23:17;102073.31;;;0.63;48.40
79150;BME280;68563;45.644;13.782;2024-01-10T04:25:43;102177.75;;;0.61;48.51
79150;BME280;68563;45.644;13.782;2024-01-10T04:28:08;102156.66;;;0.64;48.52
79150;BME280;68563;45.644;13.782;2024-01-10T04:30:33;102157.84;;;0.54;48.73
79150;BME280;68563;45.644;13.782;2024-01-10T04:32:59;102071.16;;;0.54;48.56
79150;BME280;68563;45.644;13.782;2024-01-10T04:35:24;102108.78;;;0.42;49.10
79150;BME280;68563;45.644;13.782;2024-01-10T04:37:50;102094.78;;;0.50;48.88
79150;BME280;68563;45.644;13.782;2024-01-10T04:40:15;102094.78;;;0.50;49.02
79150;BME280;68563;45.644;13.782;2024-01-10T04:42:41;102100.28;;;0.41;48.93
79150;BME280;68563;45.644;13.782;2024-01-10T04:45:06;102148.44;;;0.53;48.70
79150;BME280;68563;45.644;13.782;2024-01-10T04:47:32;102118.56;;;0.51;48.77
79150;BME280;68563;45.644;13.782;2024-01-10T04:49:58;102132.03;;;0.48;48.75
79150;BME280;68563;45.644;13.782;2024-01-10T04:52:23;102090.88;;;0.40;48.84
79150;BME280;68563;45.644;13.782;2024-01-10T04:54:48;102237.75;;;0.55;48.66
79150;BME280;68563;45.644;13.782;2024-01-10T04:57:15;102120.97;;;0.47;48.77
79150;BME280;68563;45.644;13.782;2024-01-10T04:59:41;102117.41;;;0.44;48.87
79150;BME280;68563;45.644;13.782;2024-01-10T05:02:07;102103.28;;;0.51;48.88
79150;BME280;68563;45.644;13.782;2024-01-10T05:04:32;102096.41;;;0.50;48.79
79150;BME280;68563;45.644;13.782;2024-01-10T05:06:57;102144.78;;;0.48;48.98
79150;BME280;68563;45.644;13.782;2024-01-10T05:09:23;102122.38;;;0.42;49.15
79150;BME280;68563;45.644;13.782;2024-01-10T05:11:48;102145.56;;;0.47;49.33
79150;BME280;68563;45.644;13.782;2024-01-10T05:14:16;102120.66;;;0.41;49.20
79150;BME280;68563;45.644;13.782;2024-01-10T05:16:45;102143.03;;;0.47;49.29
79150;BME280;68563;45.644;13.782;2024-01-10T05:19:10;102155.22;;;0.53;49.09
79150;BME280;68563;45.644;13.782;2024-01-10T05:21:35;102193.59;;;0.39;49.49
79150;BME280;68563;45.644;13.782;2024-01-10T05:24:01;102170.19;;;0.46;49.32
79150;BME280;68563;45.644;13.782;2024-01-10T05:26:26;102157.28;;;0.43;49.41
79150;BME280;68563;45.644;13.782;2024-01-10T05:28:52;102118.72;;;0.37;49.50
79150;BME280;68563;45.644;13.782;2024-01-10T05:31:17;102105.38;;;0.41;49.66
79150;BME280;68563;45.644;13.782;2024-01-10T05:33:43;102145.44;;;0.44;49.65
79150;BME280;68563;45.644;13.782;2024-01-10T05:36:09;102125.75;;;0.41;49.51
79150;BME280;68563;45.644;13.782;2024-01-10T05:38:37;102169.22;;;0.44;49.67
79150;BME280;68563;45.644;13.782;2024-01-10T05:41:02;102170.81;;;0.42;49.37
79150;BME280;68563;45.644;13.782;2024-01-10T05:43:28;102197.44;;;0.47;49.36
79150;BME280;68563;45.644;13.782;2024-01-10T05:45:53;102150.13;;;0.53;49.09
79150;BME280;68563;45.644;13.782;2024-01-10T05:48:19;102162.69;;;0.50;49.22
79150;BME280;68563;45.644;13.782;2024-01-10T05:50:45;102163.84;;;0.55;49.06
79150;BME280;68563;45.644;13.782;2024-01-10T05:53:10;102164.31;;;0.47;49.30
79150;BME280;68563;45.644;13.782;2024-01-10T05:55:37;102208.69;;;0.51;49.22
79150;BME280;68563;45.644;13.782;2024-01-10T05:58:03;102199.88;;;0.46;49.11
79150;BME280;68563;45.644;13.782;2024-01-10T06:00:29;102191.31;;;0.44;49.10
79150;BME280;68563;45.644;13.782;2024-01-10T06:02:54;102158.16;;;0.44;49.01
79150;BME280;68563;45.644;13.782;2024-01-10T06:05:20;102162.56;;;0.46;48.78
79150;BME280;68563;45.644;13.782;2024-01-10T06:07:45;102180.22;;;0.43;48.72
79150;BME280;68563;45.644;13.782;2024-01-10T06:10:10;102159.34;;;0.51;48.56
79150;BME280;68563;45.644;13.782;2024-01-10T06:12:36;102177.84;;;0.46;48.77
79150;BME280;68563;45.644;13.782;2024-01-10T06:15:03;102169.31;;;0.46;48.62
79150;BME280;68563;45.644;13.782;2024-01-10T06:17:29;102167.91;;;0.51;48.50
79150;BME280;68563;45.644;13.782;2024-01-10T06:19:55;102200.94;;;0.50;48.61
79150;BME280;68563;45.644;13.782;2024-01-10T06:22:20;102239.28;;;0.51;48.65
79150;BME280;68563;45.644;13.782;2024-01-10T06:24:50;102215.03;;;0.43;49.02
79150;BME280;68563;45.644;13.782;2024-01-10T06:27:15;102206.91;;;0.50;48.72
79150;BME280;68563;45.644;13.782;2024-01-10T06:29:42;102190.66;;;0.48;48.67
79150;BME280;68563;45.644;13.782;2024-01-10T06:32:07;102134.28;;;0.42;48.63
79150;BME280;68563;45.644;13.782;2024-01-10T06:34:32;102169.47;;;0.49;48.80
79150;BME280;68563;45.644;13.782;2024-01-10T06:36:58;102170.03;;;0.43;48.92
79150;BME280;68563;45.644;13.782;2024-01-10T06:39:24;102206.03;;;0.50;48.79
79150;BME280;68563;45.644;13.782;2024-01-10T06:41:50;102164.78;;;0.40;49.11
79150;BME280;68563;45.644;13.782;2024-01-10T06:44:15;102197.44;;;0.47;48.87
79150;BME280;68563;45.644;13.782;2024-01-10T06:46:44;102229.06;;;0.51;48.90
79150;BME280;68563;45.644;13.782;2024-01-10T06:49:10;102185.41;;;0.45;48.96
79150;BME280;68563;45.644;13.782;2024-01-10T06:51:36;102204.84;;;0.43;49.00
79150;BME280;68563;45.644;13.782;2024-01-10T06:54:01;102183.97;;;0.50;48.81
79150;BME280;68563;45.644;13.782;2024-01-10T06:56:31;102204.44;;;0.52;49.02
79150;BME280;68563;45.644;13.782;2024-01-10T06:58:57;102201.34;;;0.57;48.74
79150;BME280;68563;45.644;13.782;2024-01-10T07:01:23;102199.84;;;0.61;48.93
79150;BME280;68563;45.644;13.782;2024-01-10T07:03:49;102199.91;;;0.62;48.95
79150;BME280;68563;45.644;13.782;2024-01-10T07:06:14;102209.78;;;0.56;48.85
79150;BME280;68563;45.644;13.782;2024-01-10T07:08:40;102216.97;;;0.63;49.19
79150;BME280;68563;45.644;13.782;2024-01-10T07:11:07;102220.84;;;0.57;49.31
79150;BME280;68563;45.644;13.782;2024-01-10T07:13:33;102212.97;;;0.69;48.92
79150;BME280;68563;45.644;13.782;2024-01-10T07:15:58;102232.22;;;0.47;48.92
79150;BME280;68563;45.644;13.782;2024-01-10T07:18:30;102222.69;;;0.59;48.97
79150;BME280;68563;45.644;13.782;2024-01-10T07:20:58;102207.56;;;0.62;48.65
79150;BME280;68563;45.644;13.782;2024-01-10T07:23:24;102180.31;;;0.61;48.73
79150;BME280;68563;45.644;13.782;2024-01-10T07:25:50;102234.34;;;0.71;48.63
79150;BME280;68563;45.644;13.782;2024-01-10T07:28:16;102246.91;;;0.68;48.51
79150;BME280;68563;45.644;13.782;2024-01-10T07:30:41;102216.28;;;0.83;48.04
79150;BME280;68563;45.644;13.782;2024-01-10T07:33:07;102213.03;;;1.20;47.13
79150;BME280;68563;45.644;13.782;2024-01-10T07:35:33;102203.38;;;1.83;46.14
79150;BME280;68563;45.644;13.782;2024-01-10T07:37:58;102246.59;;;2.15;44.73
79150;BME280;68563;45.644;13.782;2024-01-10T07:40:23;102190.03;;;2.27;44.40
79150;BME280;68563;45.644;13.782;2024-01-10T07:42:49;102276.50;;;2.53;43.60
79150;BME280;68563;45.644;13.782;2024-01-10T07:45:14;102204.06;;;2.17;44.40
79150;BME280;68563;45.644;13.782;2024-01-10T07:47:40;102186.00;;;1.94;44.63
79150;BME280;68563;45.644;13.782;2024-01-10T07:50:06;102282.06;;;1.90;44.88
79150;BME280;68563;45.644;13.782;2024-01-10T07:52:32;102251.16;;;1.68;45.32
79150;BME280;68563;45.644;13.782;2024-01-10T07:54:58;102255.06;;;1.61;45.42
79150;BME280;68563;45.644;13.782;2024-01-10T07:57:23;102227.34;;;1.51;45.83
79150;BME280;68563;45.644;13.782;2024-01-10T07:59:48;102246.31;;;1.56;45.82
79150;BME280;68563;45.644;13.782;2024-01-10T08:02:14;102266.19;;;1.45;46.11
79150;BME280;68563;45.644;13.782;2024-01-10T08:04:39;102301.94;;;1.45;46.06
79150;BME280;68563;45.644;13.782;2024-01-10T08:07:05;102259.56;;;1.49;46.01
79150;BME280;68563;45.644;13.782;2024-01-10T08:09:30;102267.59;;;1.38;46.16
79150;BME280;68563;45.644;13.782;2024-01-10T08:11:55;102255.75;;;1.40;46.34
79150;BME280;68563;45.644;13.782;2024-01-10T08:14:21;102249.00;;;1.41;46.27
79150;BME280;68563;45.644;13.782;2024-01-10T08:16:46;102247.38;;;1.43;46.54
79150;BME280;68563;45.644;13.782;2024-01-10T08:19:12;102285.41;;;1.55;45.94
79150;BME280;68563;45.644;13.782;2024-01-10T08:24:10;102248.25;;;1.43;46.03
79150;BME280;68563;45.644;13.782;2024-01-10T08:26:36;102246.50;;;1.42;46.07
79150;BME280;68563;45.644;13.782;2024-01-10T08:29:03;102265.16;;;1.41;46.07
79150;BME280;68563;45.644;13.782;2024-01-10T08:31:28;102339.28;;;1.43;46.09
79150;BME280;68563;45.644;13.782;2024-01-10T08:33:55;102296.75;;;1.43;45.91
79150;BME280;68563;45.644;13.782;2024-01-10T08:36:22;102262.00;;;1.46;45.91
79150;BME280;68563;45.644;13.782;2024-01-10T08:38:49;102270.56;;;1.48;45.52
79150;BME280;68563;45.644;13.782;2024-01-10T08:41:15;102279.19;;;1.50;45.54
79150;BME280;68563;45.644;13.782;2024-01-10T08:43:40;102251.06;;;1.48;45.45
79150;BME280;68563;45.644;13.782;2024-01-10T08:46:08;102262.28;;;1.52;45.47
79150;BME280;68563;45.644;13.782;2024-01-10T08:48:33;102278.34;;;1.49;45.52
79150;BME280;68563;45.644;13.782;2024-01-10T08:50:59;102280.97;;;1.51;45.39
79150;BME280;68563;45.644;13.782;2024-01-10T08:53:25;102290.50;;;1.55;45.35
79150;BME280;68563;45.644;13.782;2024-01-10T08:55:50;102290.75;;;1.59;45.26
79150;BME280;68563;45.644;13.782;2024-01-10T08:58:15;102297.38;;;1.56;45.12
79150;BME280;68563;45.644;13.782;2024-01-10T09:00:41;102272.63;;;1.55;45.15
79150;BME280;68563;45.644;13.782;2024-01-10T09:03:06;102266.50;;;1.51;45.36
79150;BME280;68563;45.644;13.782;2024-01-10T09:05:32;102301.75;;;1.58;45.14
79150;BME280;68563;45.644;13.782;2024-01-10T09:07:58;102290.69;;;1.58;44.91
79150;BME280;68563;45.644;13.782;2024-01-10T09:10:23;102275.28;;;1.56;44.85
79150;BME280;68563;45.644;13.782;2024-01-10T09:12:53;102282.59;;;1.67;44.81
79150;BME280;68563;45.644;13.782;2024-01-10T09:15:18;102305.34;;;1.62;44.32
79150;BME280;68563;45.644;13.782;2024-01-10T09:17:44;102321.47;;;1.61;44.95
79150;BME280;68563;45.644;13.782;2024-01-10T09:20:10;102266.72;;;1.72;44.53
79150;BME280;68563;45.644;13.782;2024-01-10T09:22:39;102283.63;;;1.70;44.52
79150;BME280;68563;45.644;13.782;2024-01-10T09:25:05;102262.53;;;1.74;44.46
79150;BME280;68563;45.644;13.782;2024-01-10T09:27:32;102281.53;;;1.80;44.21
79150;BME280;68563;45.644;13.782;2024-01-10T09:29:59;102255.84;;;1.77;44.50
79150;BME280;68563;45.644;13.782;2024-01-10T09:32:24;102269.63;;;1.80;44.34
79150;BME280;68563;45.644;13.782;2024-01-10T09:34:50;102277.53;;;1.85;44.42
79150;BME280;68563;45.644;13.782;2024-01-10T09:37:16;102286.72;;;1.81;44.38
79150;BME280;68563;45.644;13.782;2024-01-10T09:39:41;102276.50;;;1.81;44.42
79150;BME280;68563;45.644;13.782;2024-01-10T09:42:06;102276.66;;;1.84;44.38
79150;BME280;68563;45.644;13.782;2024-01-10T09:44:32;102279.13;;;1.83;44.22
79150;BME280;68563;45.644;13.782;2024-01-10T09:46:58;102278.97;;;1.80;44.29
79150;BME280;68563;45.644;13.782;2024-01-10T09:49:24;102285.03;;;1.82;44.27
79150;BME280;68563;45.644;13.782;2024-01-10T09:51:57;102263.88;;;1.84;44.24
79150;BME280;68563;45.644;13.782;2024-01-10T09:54:26;102270.94;;;1.90;44.01
79150;BME280;68563;45.644;13.782;2024-01-10T09:56:52;102263.34;;;1.91;43.87
79150;BME280;68563;45.644;13.782;2024-01-10T09:59:18;102249.88;;;1.94;43.46
79150;BME280;68563;45.644;13.782;2024-01-10T10:01:44;102267.75;;;1.94;43.75
79150;BME280;68563;45.644;13.782;2024-01-10T10:04:11;102290.25;;;2.01;43.37
79150;BME280;68563;45.644;13.782;2024-01-10T10:06:37;102268.19;;;2.03;43.16
79150;BME280;68563;45.644;13.782;2024-01-10T10:09:02;102281.75;;;2.02;43.30
79150;BME280;68563;45.644;13.782;2024-01-10T10:11:29;102258.84;;;2.04;43.28
79150;BME280;68563;45.644;13.782;2024-01-10T10:13:54;102270.16;;;2.09;43.17
79150;BME280;68563;45.644;13.782;2024-01-10T10:16:24;102259.88;;;2.07;43.07
79150;BME280;68563;45.644;13.782;2024-01-10T10:18:53;102262.44;;;2.07;43.36
79150;BME280;68563;45.644;13.782;2024-01-10T10:21:24;102261.78;;;2.12;42.83
79150;BME280;68563;45.644;13.782;2024-01-10T10:24:01;102273.75;;;2.13;42.95
79150;BME280;68563;45.644;13.782;2024-01-10T10:26:32;102262.22;;;2.21;42.38
79150;BME280;68563;45.644;13.782;2024-01-10T10:28:58;102263.66;;;2.16;42.49
79150;BME280;68563;45.644;13.782;2024-01-10T10:31:24;102281.69;;;2.19;42.47
79150;BME280;68563;45.644;13.782;2024-01-10T10:33:50;102258.13;;;2.25;42.37
79150;BME280;68563;45.644;13.782;2024-01-10T10:36:16;102280.34;;;2.26;42.42
79150;BME280;68563;45.644;13.782;2024-01-10T10:38:41;102274.19;;;2.22;42.20
79150;BME280;68563;45.644;13.782;2024-01-10T10:41:07;102275.13;;;2.24;42.14
79150;BME280;68563;45.644;13.782;2024-01-10T10:43:36;102225.22;;;2.32;41.85
79150;BME280;68563;45.644;13.782;2024-01-10T10:46:04;102255.91;;;2.32;41.70
79150;BME280;68563;45.644;13.782;2024-01-10T10:48:34;102290.84;;;2.32;41.60
79150;BME280;68563;45.644;13.782;2024-01-10T10:51:08;102267.09;;;2.34;41.83
79150;BME280;68563;45.644;13.782;2024-01-10T10:53:35;102270.72;;;2.39;42.06
79150;BME280;68563;45.644;13.782;2024-01-10T10:56:03;102332.91;;;2.38;41.76
79150;BME280;68563;45.644;13.782;2024-01-10T10:58:32;102250.28;;;2.39;41.67
79150;BME280;68563;45.644;13.782;2024-01-10T11:00:59;102265.78;;;2.43;41.47
79150;BME280;68563;45.644;13.782;2024-01-10T11:03:25;102269.88;;;2.39;41.79
79150;BME280;68563;45.644;13.782;2024-01-10T11:05:53;102242.63;;;2.39;41.78
79150;BME280;68563;45.644;13.782;2024-01-10T11:08:19;102222.97;;;2.38;41.83
79150;BME280;68563;45.644;13.782;2024-01-10T11:10:46;102276.28;;;2.49;41.37
79150;BME280;68563;45.644;13.782;2024-01-10T11:13:41;102239.53;;;2.47;41.61
79150;BME280;68563;45.644;13.782;2024-01-10T11:24:24;102266.84;;;2.66;41.23
79150;BME280;68563;45.644;13.782;2024-01-10T11:26:49;102244.56;;;2.63;41.34
79150;BME280;68563;45.644;13.782;2024-01-10T11:29:15;102257.47;;;2.66;41.14
79150;BME280;68563;45.644;13.782;2024-01-10T11:31:40;102267.69;;;2.66;41.34
79150;BME280;68563;45.644;13.782;2024-01-10T11:34:06;102231.09;;;2.67;41.18
79150;BME280;68563;45.644;13.782;2024-01-10T11:36:32;102227.84;;;2.71;41.57
79150;BME280;68563;45.644;13.782;2024-01-10T11:38:59;102233.91;;;2.74;41.50
79150;BME280;68563;45.644;13.782;2024-01-10T11:41:31;102219.63;;;2.79;41.73
79150;BME280;68563;45.644;13.782;2024-01-10T11:46:38;102210.34;;;2.81;41.36
79150;BME280;68563;45.644;13.782;2024-01-10T11:49:03;102210.50;;;2.84;41.01
79150;BME280;68563;45.644;13.782;2024-01-10T11:51:29;102228.63;;;2.89;41.07
79150;BME280;68563;45.644;13.782;2024-01-10T11:53:55;102218.22;;;2.85;41.36
79150;BME280;68563;45.644;13.782;2024-01-10T11:56:22;102242.28;;;2.89;41.13
79150;BME280;68563;45.644;13.782;2024-01-10T11:59:05;102235.47;;;2.90;41.35
79150;BME280;68563;45.644;13.782;2024-01-10T12:01:33;102215.72;;;2.87;41.26
79150;BME280;68563;45.644;13.782;2024-01-10T12:03:59;102191.03;;;2.87;41.02
79150;BME280;68563;45.644;13.782;2024-01-10T12:06:25;102219.31;;;2.91;41.00
79150;BME280;68563;45.644;13.782;2024-01-10T12:08:51;102259.16;;;2.85;41.57
79150;BME280;68563;45.644;13.782;2024-01-10T12:11:17;102202.19;;;2.90;41.25
79150;BME280;68563;45.644;13.782;2024-01-10T12:13:42;102251.91;;;2.95;41.36
79150;BME280;68563;45.644;13.782;2024-01-10T12:16:08;102191.22;;;2.92;41.51
79150;BME280;68563;45.644;13.782;2024-01-10T12:18:33;102215.19;;;2.94;41.29
79150;BME280;68563;45.644;13.782;2024-01-10T12:20:59;102210.34;;;3.00;41.05
79150;BME280;68563;45.644;13.782;2024-01-10T12:23:25;102200.25;;;3.03;41.23
79150;BME280;68563;45.644;13.782;2024-01-10T12:25:56;102202.91;;;3.07;41.15
79150;BME280;68563;45.644;13.782;2024-01-10T12:28:21;102235.28;;;3.05;41.58
79150;BME280;68563;45.644;13.782;2024-01-10T12:30:47;102202.38;;;3.14;41.36
79150;BME280;68563;45.644;13.782;2024-01-10T12:33:13;102214.16;;;3.10;41.57
79150;BME280;68563;45.644;13.782;2024-01-10T12:35:38;102242.41;;;3.12;41.30
79150;BME280;68563;45.644;13.782;2024-01-10T12:38:08;102205.69;;;3.11;41.36
79150;BME280;68563;45.644;13.782;2024-01-10T12:40:36;102253.78;;;3.18;41.00
79150;BME280;68563;45.644;13.782;2024-01-10T12:43:03;102190.97;;;3.06;41.16
79150;BME280;68563;45.644;13.782;2024-01-10T12:45:29;102224.34;;;3.09;41.39
79150;BME280;68563;45.644;13.782;2024-01-10T12:47:54;102217.81;;;3.15;41.24
79150;BME280;68563;45.644;13.782;2024-01-10T12:50:24;102230.47;;;3.12;41.02
79150;BME280;68563;45.644;13.782;2024-01-10T12:52:52;102220.19;;;3.11;41.25
79150;BME280;68563;45.644;13.782;2024-01-10T12:55:18;102202.19;;;3.09;41.19
79150;BME280;68563;45.644;13.782;2024-01-10T12:57:44;102211.81;;;3.15;41.25